createdAt,value
2018-02-21T00:01:34.069Z,27.73
2018-02-21T00:04:01.625Z,29.77
2018-02-21T00:06:29.157Z,30.20
2018-02-21T00:08:56.726Z,30.10
2018-02-21T00:11:24.316Z,30.48
2018-02-21T00:13:51.884Z,32.47
2018-02-21T00:16:19.436Z,27.65
2018-02-21T00:18:46.974Z,28.00
2018-02-21T00:21:14.543Z,30.67
2018-02-21T00:23:42.092Z,30.58
2018-02-21T00:26:09.661Z,29.25
2018-02-21T00:28:37.225Z,26.80
2018-02-21T00:31:04.789Z,27.98
2018-02-21T00:33:32.345Z,28.83
2018-02-21T00:35:59.912Z,27.67
2018-02-21T00:38:27.477Z,32.22
2018-02-21T00:40:55.059Z,29.02
2018-02-21T00:43:22.600Z,30.40
2018-02-21T00:45:50.162Z,28.55
2018-02-21T00:48:17.728Z,28.40
2018-02-21T00:50:46.817Z,28.05
2018-02-21T00:53:14.388Z,27.75
2018-02-21T00:55:41.928Z,27.85
2018-02-21T00:58:09.480Z,27.25
2018-02-21T01:00:37.032Z,26.08
2018-02-21T01:03:04.604Z,27.92
2018-02-21T01:05:32.153Z,28.00
2018-02-21T01:07:59.711Z,27.87
2018-02-21T01:10:27.235Z,26.85
2018-02-21T01:12:55.557Z,27.58
2018-02-21T01:15:23.089Z,26.08
2018-02-21T01:17:50.649Z,26.52
2018-02-21T01:20:18.209Z,25.67
2018-02-21T01:22:45.793Z,25.55
2018-02-21T01:25:13.333Z,30.70
2018-02-21T01:27:40.898Z,25.27
2018-02-21T01:30:08.485Z,25.73
2018-02-21T01:32:36.049Z,25.77
2018-02-21T01:35:03.602Z,26.05
2018-02-21T01:37:31.152Z,25.67
2018-02-21T01:39:58.747Z,26.50
2018-02-21T01:42:26.292Z,25.85
2018-02-21T01:44:53.851Z,26.85
2018-02-21T01:47:21.408Z,26.80
2018-02-21T01:49:48.953Z,25.12
2018-02-21T01:52:16.503Z,23.67
2018-02-21T01:54:44.096Z,24.05
2018-02-21T01:57:11.652Z,25.67
2018-02-21T01:59:39.217Z,25.67
2018-02-21T02:02:06.784Z,25.25
2018-02-21T02:04:34.332Z,25.10
2018-02-21T02:07:01.889Z,26.02
2018-02-21T02:09:29.444Z,23.90
2018-02-21T02:11:57.186Z,25.08
2018-02-21T02:14:24.746Z,26.70
2018-02-21T02:16:52.292Z,25.40
2018-02-21T02:19:19.847Z,24.42
2018-02-21T02:21:47.401Z,23.95
2018-02-21T02:24:15.726Z,26.45
2018-02-21T02:26:43.280Z,25.20
2018-02-21T02:29:10.834Z,23.15
2018-02-21T02:31:38.389Z,25.58
2018-02-21T02:34:05.928Z,22.20
2018-02-21T02:36:33.498Z,26.30
2018-02-21T02:39:12.937Z,26.33
2018-02-21T02:41:40.540Z,26.00
2018-02-21T02:44:08.085Z,26.02
2018-02-21T02:46:35.629Z,26.10
2018-02-21T02:49:03.208Z,27.13
2018-02-21T02:51:30.750Z,28.52
2018-02-21T02:53:58.310Z,26.27
2018-02-21T02:56:25.878Z,29.27
2018-02-21T02:58:53.442Z,28.02
2018-02-21T03:01:20.981Z,24.98
2018-02-21T03:03:48.525Z,25.45
2018-02-21T03:06:16.084Z,26.37
2018-02-21T03:08:43.646Z,26.02
2018-02-21T03:11:11.200Z,24.20
2018-02-21T03:13:39.503Z,27.15
2018-02-21T03:16:07.063Z,24.15
2018-02-21T03:18:34.622Z,28.90
2018-02-21T03:21:02.186Z,25.40
2018-02-21T03:23:29.740Z,25.35
2018-02-21T03:25:57.305Z,25.15
2018-02-21T03:28:24.854Z,27.48
2018-02-21T03:30:52.414Z,24.37
2018-02-21T03:33:19.969Z,25.00
2018-02-21T03:35:47.536Z,27.23
2018-02-21T03:38:15.087Z,22.05
2018-02-21T03:40:42.651Z,23.90
2018-02-21T03:43:10.203Z,26.12
2018-02-21T03:45:37.760Z,28.60
2018-02-21T03:48:05.324Z,27.25
2018-02-21T03:50:32.872Z,26.92
2018-02-21T03:53:01.197Z,26.87
2018-02-21T03:55:28.740Z,25.77
2018-02-21T03:57:56.304Z,28.90
2018-02-21T04:00:23.844Z,29.73
2018-02-21T04:02:51.410Z,26.20
2018-02-21T04:05:18.968Z,25.40
2018-02-21T04:07:46.509Z,26.33
2018-02-21T04:10:14.822Z,29.60
2018-02-21T04:12:42.404Z,29.60
2018-02-21T04:15:09.958Z,29.23
2018-02-21T04:17:37.555Z,29.30
2018-02-21T04:20:05.881Z,28.85
2018-02-21T04:22:33.456Z,28.17
2018-02-21T04:25:01.012Z,29.30
2018-02-21T04:27:28.561Z,33.33
2018-02-21T04:29:56.105Z,29.17
2018-02-21T04:32:23.654Z,29.35
2018-02-21T04:34:51.220Z,29.60
2018-02-21T04:37:18.780Z,28.75
2018-02-21T04:39:46.336Z,30.85
2018-02-21T04:42:13.872Z,31.92
2018-02-21T04:44:42.193Z,30.02
2018-02-21T04:47:09.752Z,29.87
2018-02-21T04:49:37.285Z,31.08
2018-02-21T04:52:05.600Z,30.92
2018-02-21T05:07:53.132Z,29.60
2018-02-21T05:10:20.688Z,31.30
2018-02-21T05:12:48.245Z,31.30
2018-02-21T05:15:15.785Z,30.15
2018-02-21T05:17:43.353Z,31.83
2018-02-21T05:20:10.920Z,32.03
2018-02-21T05:22:38.489Z,29.48
2018-02-21T05:25:06.029Z,31.08
2018-02-21T05:27:33.583Z,31.30
2018-02-21T05:30:01.149Z,29.80
2018-02-21T05:32:28.702Z,31.00
2018-02-21T05:34:56.247Z,30.48
2018-02-21T05:37:23.823Z,31.05
2018-02-21T05:39:51.353Z,29.00
2018-02-21T05:42:18.921Z,29.12
2018-02-21T05:44:46.465Z,29.10
2018-02-21T05:47:14.796Z,30.00
2018-02-21T05:49:42.340Z,29.85
2018-02-21T05:52:10.005Z,29.15
2018-02-21T05:54:38.452Z,26.15
2018-02-21T05:57:06.801Z,28.33
2018-02-21T05:59:34.339Z,26.42
2018-02-21T06:02:01.888Z,26.62
2018-02-21T06:04:29.428Z,24.73
2018-02-21T06:06:56.989Z,26.20
2018-02-21T06:09:24.565Z,27.10
2018-02-21T06:11:52.128Z,25.05
2018-02-21T06:14:19.691Z,30.35
2018-02-21T06:16:48.165Z,26.77
2018-02-21T06:19:15.711Z,28.20
2018-02-21T06:21:43.264Z,24.75
2018-02-21T06:24:10.795Z,24.90
2018-02-21T06:26:39.101Z,23.65
2018-02-21T06:29:06.700Z,27.30
2018-02-21T06:31:34.252Z,28.05
2018-02-21T06:34:01.817Z,29.55
2018-02-21T06:36:29.358Z,27.15
2018-02-21T06:38:56.929Z,27.58
2018-02-21T06:41:24.467Z,26.50
2018-02-21T06:43:52.050Z,26.85
2018-02-21T06:46:19.601Z,24.80
2018-02-21T06:48:47.166Z,28.38
2018-02-21T06:51:14.714Z,28.02
2018-02-21T06:53:42.283Z,27.60
2018-02-21T06:56:09.845Z,27.08
2018-02-21T06:58:37.378Z,27.35
2018-02-21T07:01:05.704Z,28.00
2018-02-21T07:03:33.239Z,27.37
2018-02-21T07:06:00.797Z,30.98
2018-02-21T07:08:28.809Z,27.33
2018-02-21T07:10:56.373Z,26.85
2018-02-21T07:13:23.912Z,29.90
2018-02-21T07:15:52.254Z,28.60
2018-02-21T07:18:19.797Z,31.25
2018-02-21T07:20:47.335Z,32.53
2018-02-21T07:23:14.898Z,34.85
2018-02-21T07:25:42.434Z,30.55
2018-02-21T07:28:10.003Z,30.95
2018-02-21T07:30:37.549Z,33.03
2018-02-21T07:33:05.117Z,31.20
2018-02-21T07:35:32.696Z,31.87
2018-02-21T07:38:00.281Z,31.65
2018-02-21T07:40:28.597Z,30.83
2018-02-21T07:42:56.177Z,30.02
2018-02-21T07:45:23.746Z,29.33
2018-02-21T07:47:51.305Z,31.42
2018-02-21T07:50:18.884Z,31.25
2018-02-21T07:52:46.445Z,31.42
2018-02-21T07:55:14.006Z,30.27
2018-02-21T07:57:41.546Z,30.55
2018-02-21T08:00:09.129Z,30.35
2018-02-21T08:02:37.451Z,30.92
2018-02-21T08:05:05.116Z,28.58
2018-02-21T08:07:32.715Z,31.33
2018-02-21T08:10:00.258Z,30.17
2018-02-21T08:12:29.109Z,34.95
2018-02-21T08:14:56.675Z,34.97
2018-02-21T08:17:24.256Z,36.13
2018-02-21T08:19:51.808Z,34.45
2018-02-21T08:22:19.364Z,34.97
2018-02-21T08:24:46.932Z,29.95
2018-02-21T08:27:14.491Z,35.70
2018-02-21T08:29:42.116Z,33.60
2018-02-21T08:32:10.428Z,33.80
2018-02-21T08:34:38.053Z,35.13
2018-02-21T08:37:05.590Z,38.00
2018-02-21T08:39:33.171Z,34.25
2018-02-21T08:42:01.502Z,35.03
2018-02-21T08:44:29.068Z,31.85
2018-02-21T08:46:56.639Z,30.65
2018-02-21T08:49:24.213Z,29.90
2018-02-21T08:51:51.786Z,30.70
2018-02-21T08:54:20.132Z,30.27
2018-02-21T08:56:47.681Z,33.33
2018-02-21T08:59:15.257Z,32.95
2018-02-21T09:01:42.818Z,36.63
2018-02-21T09:04:10.398Z,35.08
2018-02-21T09:06:38.746Z,35.47
2018-02-21T09:09:06.305Z,31.65
2018-02-21T09:11:33.893Z,34.90
2018-02-21T09:14:02.250Z,33.00
2018-02-21T09:16:29.865Z,33.80
2018-02-21T09:18:57.422Z,31.83
2018-02-21T09:21:24.989Z,33.92
2018-02-21T09:23:52.537Z,31.98
2018-02-21T09:26:20.121Z,33.17
2018-02-21T09:28:47.707Z,34.53
2018-02-21T09:31:15.283Z,33.00
2018-02-21T09:33:42.822Z,34.72
2018-02-21T09:36:10.374Z,33.55
2018-02-21T09:38:37.982Z,36.67
2018-02-21T09:41:06.328Z,31.42
2018-02-21T09:43:33.909Z,34.80
2018-02-21T09:46:02.241Z,34.50
2018-02-21T09:48:29.785Z,33.80
2018-02-21T09:50:57.354Z,35.38
2018-02-21T09:53:24.924Z,35.05
2018-02-21T09:55:52.500Z,31.90
2018-02-21T09:58:20.048Z,35.45
2018-02-21T10:00:47.615Z,28.42
2018-02-21T10:03:15.164Z,33.45
2018-02-21T10:05:42.738Z,34.30
2018-02-21T10:08:10.310Z,37.47
2018-02-21T10:10:37.940Z,39.13
2018-02-21T10:13:05.470Z,36.25
2018-02-21T10:15:33.816Z,37.28
2018-02-21T10:18:01.389Z,34.78
2018-02-21T10:20:28.932Z,33.15
2018-02-21T10:22:56.521Z,33.35
2018-02-21T10:25:24.894Z,36.92
2018-02-21T10:27:53.245Z,34.72
2018-02-21T10:30:20.802Z,32.75
2018-02-21T10:32:48.848Z,35.20
2018-02-21T10:35:16.413Z,35.35
2018-02-21T10:37:43.991Z,32.13
2018-02-21T10:40:11.560Z,34.60
2018-02-21T10:42:39.126Z,32.92
2018-02-21T10:45:06.682Z,31.45
2018-02-21T10:47:34.254Z,29.95
2018-02-21T10:50:01.825Z,32.28
2018-02-21T10:52:30.149Z,33.55
2018-02-21T10:54:57.724Z,35.78
2018-02-21T10:57:25.273Z,35.38
2018-02-21T10:59:52.838Z,37.28
2018-02-21T11:02:20.400Z,38.20
2018-02-21T11:04:47.985Z,36.70
2018-02-21T11:07:15.542Z,37.20
2018-02-21T11:09:43.109Z,38.72
2018-02-21T11:12:10.645Z,35.13
2018-02-21T11:14:38.225Z,36.30
2018-02-21T11:17:05.785Z,37.15
2018-02-21T11:19:33.335Z,36.45
2018-02-21T11:22:00.917Z,37.25
2018-02-21T11:24:29.238Z,36.75
2018-02-21T11:26:57.101Z,35.83
2018-02-21T11:29:24.682Z,38.97
2018-02-21T11:31:52.246Z,36.65
2018-02-21T11:34:19.834Z,35.50
2018-02-21T11:36:47.402Z,37.65
2018-02-21T11:39:14.992Z,39.17
2018-02-21T11:41:42.540Z,37.40
2018-02-21T11:44:10.883Z,37.85
2018-02-21T11:46:38.435Z,40.08
2018-02-21T11:49:05.993Z,38.53
2018-02-21T11:51:33.548Z,38.85
2018-02-21T11:54:01.112Z,39.55
2018-02-21T11:56:28.680Z,39.97
2018-02-21T11:58:57.041Z,41.70
2018-02-21T12:01:24.610Z,42.33
2018-02-21T12:03:52.179Z,39.42
2018-02-21T12:06:19.748Z,38.03
2018-02-21T12:08:48.086Z,39.97
2018-02-21T12:11:15.621Z,41.28
2018-02-21T12:13:43.958Z,40.00
2018-02-21T12:16:11.552Z,38.78
2018-02-21T12:18:39.878Z,39.08
2018-02-21T12:21:07.449Z,38.25
2018-02-21T12:23:35.031Z,36.72
2018-02-21T12:26:02.846Z,36.75
2018-02-21T12:28:30.449Z,35.30
2018-02-21T12:30:57.993Z,36.38
2018-02-21T12:33:25.592Z,36.35
2018-02-21T12:35:53.914Z,35.92
2018-02-21T12:38:21.517Z,35.25
2018-02-21T12:40:55.564Z,36.25
2018-02-21T12:43:23.122Z,38.35
2018-02-21T12:45:50.696Z,38.15
2018-02-21T12:48:18.261Z,37.58
2018-02-21T12:50:45.826Z,37.97
2018-02-21T12:53:13.413Z,37.65
2018-02-21T12:55:40.974Z,37.00
2018-02-21T12:58:08.539Z,36.67
2018-02-21T13:00:36.100Z,34.28
2018-02-21T13:03:03.706Z,36.10
2018-02-21T13:05:31.288Z,36.55
2018-02-21T13:07:58.868Z,36.35
2018-02-21T13:10:26.426Z,35.17
2018-02-21T13:12:54.019Z,32.47
2018-02-21T13:15:21.736Z,30.42
2018-02-21T13:17:49.308Z,30.95
2018-02-21T13:20:16.854Z,30.08
2018-02-21T13:22:44.437Z,28.70
2018-02-21T13:25:12.560Z,28.95
2018-02-21T13:27:40.901Z,26.95
2018-02-21T13:30:08.514Z,29.20
2018-02-21T13:32:36.072Z,27.55
2018-02-21T13:35:03.690Z,29.35
2018-02-21T13:37:31.271Z,27.70
2018-02-21T13:39:59.656Z,28.27
2018-02-21T13:42:27.974Z,28.20
2018-02-21T13:44:55.547Z,27.67
2018-02-21T13:47:23.106Z,26.33
2018-02-21T13:49:50.686Z,26.80
2018-02-21T13:52:18.238Z,27.25
2018-02-21T13:54:45.798Z,28.02
2018-02-21T13:57:13.350Z,29.35
2018-02-21T13:59:40.926Z,30.85
2018-02-21T14:02:08.481Z,29.20
2018-02-21T14:04:36.108Z,28.73
2018-02-21T14:07:03.694Z,29.37
2018-02-21T14:09:31.248Z,28.62
2018-02-21T14:12:00.759Z,27.48
2018-02-21T14:14:28.325Z,28.25
2018-02-21T14:16:55.885Z,27.10
2018-02-21T14:19:23.455Z,29.90
2018-02-21T14:21:51.045Z,29.95
2018-02-21T14:24:18.638Z,29.70
2018-02-21T14:26:46.219Z,30.95
2018-02-21T14:29:13.768Z,30.77
2018-02-21T14:31:41.350Z,29.20
2018-02-21T14:34:08.905Z,30.48
2018-02-21T14:36:36.485Z,30.10
2018-02-21T14:39:04.062Z,28.05
2018-02-21T14:41:32.428Z,28.73
2018-02-21T14:44:00.754Z,29.05
2018-02-21T14:46:28.341Z,31.02
2018-02-21T14:48:55.909Z,32.47
2018-02-21T14:51:23.489Z,33.50
2018-02-21T14:53:51.819Z,33.88
2018-02-21T14:56:19.392Z,30.20
2018-02-21T14:58:47.459Z,31.85
2018-02-21T15:01:15.013Z,30.55
2018-02-21T15:03:42.606Z,31.00
2018-02-21T15:06:10.198Z,30.88
2018-02-21T15:08:38.534Z,30.88
2018-02-21T15:11:06.094Z,31.10
2018-02-21T15:13:33.682Z,31.15
2018-02-21T15:16:02.005Z,30.30
2018-02-21T15:18:29.613Z,51.65
2018-02-21T15:20:57.158Z,53.10
2018-02-21T15:23:24.767Z,33.35
2018-02-21T15:25:53.046Z,31.37
2018-02-21T15:28:20.672Z,30.35
2018-02-21T15:30:48.246Z,32.97
2018-02-21T15:33:16.583Z,30.33
2018-02-21T15:35:44.134Z,30.88
2018-02-21T15:38:11.688Z,30.25
2018-02-21T15:40:39.293Z,30.33
2018-02-21T15:43:07.677Z,30.15
2018-02-21T15:45:36.045Z,27.85
2018-02-21T15:48:03.613Z,26.75
2018-02-21T15:50:31.185Z,28.45
2018-02-21T15:52:59.497Z,28.20
2018-02-21T15:55:27.081Z,28.08
2018-02-21T15:57:54.643Z,25.70
2018-02-21T16:00:22.237Z,28.08
2018-02-21T16:02:50.576Z,27.00
2018-02-21T16:05:18.138Z,29.45
2018-02-21T16:07:45.698Z,27.35
2018-02-21T16:10:13.269Z,28.30
2018-02-21T16:12:40.822Z,29.63
2018-02-21T16:15:08.432Z,28.27
2018-02-21T16:17:36.015Z,29.52
2018-02-21T16:20:04.047Z,27.10
2018-02-21T16:22:32.798Z,29.83
2018-02-21T16:25:00.357Z,27.92
2018-02-21T16:27:27.927Z,26.83
2018-02-21T16:29:55.471Z,26.98
2018-02-21T16:32:23.068Z,27.35
2018-02-21T16:34:51.392Z,26.62
2018-02-21T16:37:18.974Z,28.27
2018-02-21T16:39:46.531Z,26.75
2018-02-21T16:42:14.129Z,27.27
2018-02-21T16:44:42.488Z,25.33
2018-02-21T16:47:10.042Z,26.15
2018-02-21T16:49:37.635Z,28.75
2018-02-21T16:52:05.966Z,27.67
2018-02-21T16:54:37.566Z,29.00
2018-02-21T16:57:05.893Z,29.40
2018-02-21T16:59:33.506Z,29.23
2018-02-21T17:02:01.822Z,28.87
2018-02-21T17:04:29.394Z,28.83
2018-02-21T17:06:56.934Z,27.15
2018-02-21T17:09:24.518Z,27.83
2018-02-21T17:11:52.098Z,28.75
2018-02-21T17:14:19.686Z,28.98
2018-02-21T17:16:48.027Z,27.60
2018-02-21T17:19:15.597Z,27.45
2018-02-21T17:21:43.189Z,27.35
2018-02-21T17:24:11.552Z,29.63
2018-02-21T17:26:40.008Z,29.10
2018-02-21T17:29:07.561Z,30.20
2018-02-21T17:31:35.124Z,27.48
2018-02-21T17:34:02.694Z,27.65
2018-02-21T17:36:30.259Z,27.08
2018-02-21T17:38:57.873Z,27.25
2018-02-21T17:41:31.093Z,26.20
2018-02-21T17:43:58.641Z,25.95
2018-02-21T17:46:26.205Z,26.37
2018-02-21T17:48:53.844Z,26.20
2018-02-21T17:51:21.406Z,29.02
2018-02-21T17:53:49.039Z,29.80
2018-02-21T17:56:17.401Z,26.85
2018-02-21T17:58:44.974Z,28.35
2018-02-21T18:01:13.319Z,26.50
2018-02-21T18:03:40.923Z,28.02
2018-02-21T18:06:09.270Z,28.45
2018-02-21T18:08:36.908Z,26.27
2018-02-21T18:11:04.481Z,30.52
2018-02-21T18:13:32.049Z,27.55
2018-02-21T18:15:59.651Z,28.77
2018-02-21T18:18:28.045Z,28.80
2018-02-21T18:20:56.750Z,27.58
2018-02-21T18:23:24.318Z,28.77
2018-02-21T18:25:51.909Z,27.50
2018-02-21T18:28:19.513Z,29.70
2018-02-21T18:30:47.455Z,29.40
2018-02-21T18:33:15.810Z,27.50
2018-02-21T18:35:43.397Z,28.05
2018-02-21T18:38:11.717Z,27.25
2018-02-21T18:40:39.280Z,26.90
2018-02-21T18:43:06.887Z,28.05
2018-02-21T18:45:34.450Z,27.40
2018-02-21T18:48:02.230Z,28.70
2018-02-21T18:50:30.573Z,25.40
2018-02-21T18:52:58.185Z,27.05
2018-02-21T18:55:25.814Z,26.60
2018-02-21T18:57:54.170Z,23.05
2018-02-21T19:00:21.740Z,27.42
2018-02-21T19:02:49.477Z,27.23
2018-02-21T19:05:17.029Z,26.08
2018-02-21T19:07:44.606Z,25.67
2018-02-21T19:10:12.252Z,25.73
2018-02-21T19:12:39.854Z,27.77
2018-02-21T19:15:07.438Z,26.20
2018-02-21T19:17:35.761Z,22.90
2018-02-21T19:20:03.367Z,24.20
2018-02-21T19:22:31.714Z,25.20
2018-02-21T19:24:59.294Z,22.85
2018-02-21T19:27:26.845Z,21.05
2018-02-21T19:29:54.450Z,22.60
2018-02-21T19:32:22.022Z,23.77
2018-02-21T19:34:49.622Z,21.02
2018-02-21T19:37:17.240Z,22.27
2018-02-21T19:39:45.552Z,22.67
2018-02-21T19:42:13.121Z,22.00
2018-02-21T19:44:40.718Z,22.40
2018-02-21T19:47:09.074Z,21.15
2018-02-21T19:49:37.244Z,20.55
2018-02-21T19:52:04.800Z,19.25
2018-02-21T19:54:32.371Z,19.40
2018-02-21T19:56:59.983Z,19.52
2018-02-21T19:59:27.605Z,20.37
2018-02-21T20:01:55.949Z,18.90
2018-02-21T20:04:23.534Z,20.23
2018-02-21T20:06:51.128Z,19.10
2018-02-21T20:09:18.733Z,17.67
2018-02-21T20:11:46.305Z,20.10
2018-02-21T20:14:13.902Z,21.55
2018-02-21T20:16:41.503Z,18.75
2018-02-21T20:19:09.080Z,16.95
2018-02-21T20:21:36.679Z,21.10
2018-02-21T20:24:05.138Z,18.50
2018-02-21T20:26:32.767Z,19.80
2018-02-21T20:29:00.333Z,18.75
2018-02-21T20:31:27.919Z,20.10
2018-02-21T20:33:55.493Z,18.30
2018-02-21T20:36:23.850Z,19.80
2018-02-21T20:38:51.423Z,21.02
2018-02-21T20:41:19.768Z,21.87
2018-02-21T20:43:47.365Z,20.75
2018-02-21T20:46:15.714Z,17.37
2018-02-21T20:48:43.293Z,18.42
2018-02-21T20:51:11.634Z,18.02
2018-02-21T20:53:39.195Z,19.10
2018-02-21T20:56:06.783Z,19.75
2018-02-21T20:58:34.374Z,19.95
2018-02-21T21:01:02.744Z,19.87
2018-02-21T21:03:31.138Z,23.00
2018-02-21T21:05:59.468Z,20.27
2018-02-21T21:08:27.035Z,20.15
2018-02-21T21:10:54.597Z,18.40
2018-02-21T21:13:22.163Z,20.02
2018-02-21T21:15:49.739Z,22.00
2018-02-21T21:18:18.086Z,19.05
2018-02-21T21:20:45.628Z,19.37
2018-02-21T21:23:13.224Z,20.20
2018-02-21T21:25:40.776Z,21.67
2018-02-21T21:28:08.355Z,20.92
2018-02-21T21:30:35.940Z,20.88
2018-02-21T21:33:04.249Z,21.23
2018-02-21T21:35:31.823Z,21.05
2018-02-21T21:37:59.416Z,21.00
2018-02-21T21:40:26.985Z,21.98
2018-02-21T21:42:55.317Z,20.42
2018-02-21T21:45:22.933Z,20.37
2018-02-21T21:47:51.252Z,21.37
2018-02-21T21:50:18.875Z,19.98
2018-02-21T21:52:47.201Z,21.80
2018-02-21T21:55:14.764Z,22.60
2018-02-21T21:57:42.404Z,22.25
2018-02-21T22:00:09.969Z,22.17
2018-02-21T22:02:37.556Z,22.05
2018-02-21T22:05:05.104Z,21.17
2018-02-21T22:07:32.680Z,22.17
2018-02-21T22:10:00.242Z,22.00
2018-02-21T22:12:27.836Z,23.30
2018-02-21T22:14:55.417Z,21.25
2018-02-21T22:17:23.038Z,21.75
2018-02-21T22:19:50.622Z,22.27
2018-02-21T22:22:18.214Z,21.42
2018-02-21T22:24:45.756Z,21.75
2018-02-21T22:27:13.320Z,22.33
2018-02-21T22:29:40.889Z,22.40
2018-02-21T22:32:08.448Z,24.90
2018-02-21T22:34:36.060Z,23.15
2018-02-21T22:37:03.634Z,22.55
2018-02-21T22:39:31.959Z,22.45
2018-02-21T22:41:59.528Z,21.50
2018-02-21T22:44:27.136Z,22.65
2018-02-21T22:46:55.477Z,20.50
2018-02-21T22:49:23.081Z,22.23
2018-02-21T22:51:50.633Z,22.15
2018-02-21T22:54:19.020Z,24.05
2018-02-21T22:56:47.361Z,22.90
2018-02-21T22:59:14.945Z,21.85
2018-02-21T23:01:43.280Z,22.30
2018-02-21T23:04:10.839Z,22.52
2018-02-21T23:06:38.426Z,20.33
2018-02-21T23:09:05.968Z,22.45
2018-02-21T23:11:34.330Z,24.27
2018-02-21T23:14:01.886Z,20.35
2018-02-21T23:16:29.448Z,20.40
2018-02-21T23:18:57.016Z,21.50
2018-02-21T23:21:24.581Z,22.50
2018-02-21T23:23:52.133Z,25.27
2018-02-21T23:26:19.729Z,23.45
2018-02-21T23:28:47.312Z,21.70
2018-02-21T23:31:15.649Z,22.87
2018-02-21T23:33:43.219Z,23.02
2018-02-21T23:36:10.769Z,21.62
2018-02-21T23:38:38.330Z,21.25
2018-02-21T23:41:05.904Z,21.40
2018-02-21T23:43:34.985Z,22.83
2018-02-21T23:46:02.597Z,21.33
2018-02-21T23:48:30.164Z,19.85
2018-02-21T23:50:57.746Z,21.30
2018-02-21T23:53:25.306Z,23.23
2018-02-21T23:55:52.883Z,24.02
2018-02-21T23:58:20.431Z,21.83
